Time,TemperatureF,DewpointF,PressureIn,WindDirection,WindDirectionDegrees,WindSpeedMPH,WindSpeedGustMPH,Humidity,HourlyPrecipIn,Conditions,Clouds,dailyrainin,SoftwareType,DateUTC
2013-03-10 00:00:00,74.0,68.2,29.89,NW,315,11.0,20.0,82,0.00,,---,0.00,VWS V14.01,2013-03-10 10:00:00,
2013-03-10 00:30:00,73.3,67.8,29.89,NNW,338,10.0,17.0,83,0.00,,---,0.00,VWS V14.01,2013-03-10 10:30:00,
2013-03-10 01:00:00,73.5,68.4,29.88,NNW,338,9.0,14.0,84,0.00,,---,0.00,VWS V14.01,2013-03-10 11:00:00,
2013-03-10 01:30:00,73.3,68.2,29.88,NW,315,8.0,13.0,84,0.00,,---,0.00,VWS V14.01,2013-03-10 11:30:00,
2013-03-10 02:00:00,73.1,68.0,29.89,NW,315,8.0,13.0,84,0.00,,---,0.00,VWS V14.01,2013-03-10 12:00:00,
2013-03-10 02:30:00,72.6,67.5,29.89,NNW,338,9.0,13.0,84,0.00,,---,0.00,VWS V14.01,2013-03-10 12:30:00,
2013-03-10 03:00:00,72.6,67.5,29.90,NNW,338,3.0,8.0,84,0.00,,---,0.00,VWS V14.01,2013-03-10 13:00:00,
2013-03-10 03:30:00,70.4,65.3,29.91,NNW,338,1.0,5.0,84,0.00,,---,0.00,VWS V14.01,2013-03-10 13:30:00,
2013-03-10 04:00:00,68.9,62.8,29.91,East,90,2.0,7.0,81,0.00,,---,0.00,VWS V14.01,2013-03-10 14:00:00,
2013-03-10 04:30:00,70.8,60.9,29.92,East,90,2.0,7.0,71,0.00,,---,0.00,VWS V14.01,2013-03-10 14:30:00,
2013-03-10 05:00:00,75.1,63.8,29.93,East,90,1.0,3.0,68,0.00,,---,0.00,VWS V14.01,2013-03-10 15:00:00,
2013-03-10 05:30:00,76.0,67.1,29.94,NE,45,3.0,11.0,74,0.00,,---,0.00,VWS V14.01,2013-03-10 15:30:00,
2013-03-10 06:00:00,76.0,67.1,29.94,NNW,338,11.0,15.0,74,0.00,,---,0.00,VWS V14.01,2013-03-10 16:00:00,
2013-03-10 06:30:00,75.7,66.0,29.94,WNW,292,7.0,11.0,72,0.00,,---,0.00,VWS V14.01,2013-03-10 16:30:00,
2013-03-10 07:00:00,76.0,66.3,29.95,WNW,292,6.0,9.0,72,0.00,,---,0.00,VWS V14.01,2013-03-10 17:00:00,
2013-03-10 07:30:00,76.7,67.0,29.94,WNW,292,6.0,8.0,72,0.00,,---,0.00,VWS V14.01,2013-03-10 17:30:00,
2013-03-10 08:00:00,76.6,66.9,29.93,WNW,292,9.0,16.0,72,0.00,,---,0.00,VWS V14.01,2013-03-10 18:00:00,
2013-03-10 08:30:00,79.1,68.1,29.92,NNW,338,11.0,16.0,69,0.00,,---,0.00,VWS V14.01,2013-03-10 18:30:00,
2013-03-10 09:00:00,80.2,69.5,29.90,West,270,8.0,17.0,70,0.00,,---,0.00,VWS V14.01,2013-03-10 19:00:00,
2013-03-10 09:30:00,81.2,68.8,29.88,WSW,248,6.0,12.0,66,0.00,,---,0.00,VWS V14.01,2013-03-10 19:30:00,
2013-03-10 10:00:00,81.2,68.8,29.87,WSW,248,6.0,12.0,66,0.00,,---,0.00,VWS V14.01,2013-03-10 20:00:00,
2013-03-10 10:30:00,80.6,69.5,29.85,WSW,248,6.0,11.0,69,0.00,,---,0.00,VWS V14.01,2013-03-10 20:30:00,
2013-03-10 11:00:00,80.1,69.9,29.85,WSW,248,6.0,18.0,71,0.00,,---,0.00,VWS V14.01,2013-03-10 21:00:00,
2013-03-10 11:30:00,79.6,69.8,29.84,WSW,248,6.0,13.0,72,0.00,,---,0.00,VWS V14.01,2013-03-10 21:30:00,
2013-03-10 12:00:00,78.9,70.7,29.83,WSW,248,7.0,11.0,76,0.00,,---,0.00,VWS V14.01,2013-03-10 22:00:00,
2013-03-10 12:30:00,79.0,69.6,29.83,WSW,248,6.0,12.0,73,0.00,,---,0.00,VWS V14.01,2013-03-10 22:30:00,
2013-03-10 13:00:00,78.9,70.7,29.83,WSW,248,6.0,12.0,76,0.00,,---,0.00,VWS V14.01,2013-03-10 23:00:00,
2013-03-10 13:30:00,77.6,70.6,29.84,WSW,248,9.0,16.0,79,0.00,,---,0.00,VWS V14.01,2013-03-10 23:30:00,
2013-03-10 14:00:00,77.1,70.5,29.85,West,270,15.0,23.0,80,0.00,,---,0.00,VWS V14.01,2013-03-11 00:00:00,
2013-03-10 14:30:00,76.8,70.2,29.87,WNW,292,17.0,24.0,80,0.00,,---,0.00,VWS V14.01,2013-03-11 00:30:00,
2013-03-10 15:00:00,76.6,70.3,29.88,WNW,292,17.0,27.0,81,0.00,,---,0.00,VWS V14.01,2013-03-11 01:00:00,
2013-03-10 15:30:00,76.6,70.7,29.89,West,270,12.0,24.0,82,0.00,,---,0.00,VWS V14.01,2013-03-11 01:30:00,
2013-03-10 16:00:00,76.3,70.8,29.90,WSW,248,7.0,11.0,83,0.00,,---,0.00,VWS V14.01,2013-03-11 02:00:00,
2013-03-10 16:30:00,76.0,69.4,29.91,WSW,248,6.0,14.0,80,0.00,,---,0.00,VWS V14.01,2013-03-11 02:30:00,
2013-03-10 17:00:00,76.0,69.4,29.94,SW,225,4.0,13.0,80,0.00,,---,0.00,VWS V14.01,2013-03-11 03:00:00,
2013-03-10 17:30:00,75.8,69.2,29.96,WSW,248,3.0,9.0,80,0.00,,---,0.00,VWS V14.01,2013-03-11 03:30:00,
2013-03-10 18:00:00,76.1,69.8,29.97,WSW,248,2.0,7.0,81,0.00,,---,0.00,VWS V14.01,2013-03-11 04:00:00,
2013-03-10 18:30:00,75.7,69.8,29.99,WSW,248,3.0,10.0,82,0.00,,---,0.00,VWS V14.01,2013-03-11 04:30:00,
2013-03-10 19:00:00,75.6,69.4,29.99,WSW,248,3.0,9.0,81,0.00,,---,0.00,VWS V14.01,2013-03-11 05:00:00,
2013-03-10 19:30:00,75.7,69.8,29.99,WSW,248,2.0,7.0,82,0.00,,---,0.00,VWS V14.01,2013-03-11 05:30:00,
2013-03-10 20:00:00,75.1,69.2,30.00,WNW,292,6.0,11.0,82,0.00,,---,0.00,VWS V14.01,2013-03-11 06:00:00,
2013-03-10 20:30:00,74.9,69.0,29.99,WNW,292,4.0,8.0,82,0.00,,---,0.00,VWS V14.01,2013-03-11 06:30:00,
2013-03-10 21:00:00,75.1,69.2,30.00,West,270,3.0,6.0,82,0.00,,---,0.00,VWS V14.01,2013-03-11 07:00:00,
2013-03-10 21:30:00,74.7,67.8,30.00,WNW,292,3.0,7.0,79,0.00,,---,0.00,VWS V14.01,2013-03-11 07:30:00,
2013-03-10 22:00:00,74.4,68.6,29.99,NW,315,6.0,9.0,82,0.02,,---,0.02,VWS V14.01,2013-03-11 08:00:00,
2013-03-10 22:30:00,73.7,68.6,29.99,NNW,338,6.0,10.0,84,0.02,,---,0.02,VWS V14.01,2013-03-11 08:30:00,
2013-03-10 23:00:00,72.1,67.7,29.98,SE,135,1.0,7.0,86,0.02,,---,0.02,VWS V14.01,2013-03-11 09:00:00,
2013-03-10 23:30:00,70.7,66.7,29.96,East,90,1.0,5.0,87,0.00,,---,0.02,VWS V14.01,2013-03-11 09:30:00,